sensor_id;sensor_type;location;lat;lon;timestamp;P1;durP1;ratioP1;P2;durP2;ratioP2
80370;SDS011;69894;48.124;11.542;2023-05-07T00:00:09;22.10;;;7.22;;
80370;SDS011;69894;48.124;11.542;2023-05-07T00:02:35;16.33;;;5.93;;
80370;SDS011;69894;48.124;11.542;2023-05-07T00:05:02;17.02;;;5.07;;
80370;SDS011;69894;48.124;11.542;2023-05-07T00:07:28;13.60;;;4.85;;
80370;SDS011;69894;48.124;11.542;2023-05-07T00:09:53;16.60;;;5.88;;
80370;SDS011;69894;48.124;11.542;2023-05-07T00:12:18;16.90;;;6.20;;
80370;SDS011;69894;48.124;11.542;2023-05-07T00:14:44;16.48;;;5.63;;
80370;SDS011;69894;48.124;11.542;2023-05-07T00:17:10;10.65;;;4.13;;
80370;SDS011;69894;48.124;11.542;2023-05-07T00:19:35;7.85;;;3.90;;
80370;SDS011;69894;48.124;11.542;2023-05-07T00:22:01;10.02;;;4.20;;
80370;SDS011;69894;48.124;11.542;2023-05-07T00:24:26;8.25;;;3.33;;
80370;SDS011;69894;48.124;11.542;2023-05-07T00:26:51;8.55;;;3.20;;
80370;SDS011;69894;48.124;11.542;2023-05-07T00:29:17;7.60;;;2.88;;
80370;SDS011;69894;48.124;11.542;2023-05-07T00:31:43;8.07;;;3.42;;
80370;SDS011;69894;48.124;11.542;2023-05-07T00:34:08;8.38;;;3.83;;
80370;SDS011;69894;48.124;11.542;2023-05-07T00:36:34;10.32;;;3.60;;
80370;SDS011;69894;48.124;11.542;2023-05-07T00:38:59;7.72;;;3.55;;
80370;SDS011;69894;48.124;11.542;2023-05-07T00:41:25;6.97;;;3.05;;
80370;SDS011;69894;48.124;11.542;2023-05-07T00:43:51;7.38;;;3.50;;
80370;SDS011;69894;48.124;11.542;2023-05-07T00:46:17;9.27;;;4.18;;
80370;SDS011;69894;48.124;11.542;2023-05-07T00:48:42;6.78;;;3.50;;
80370;SDS011;69894;48.124;11.542;2023-05-07T00:51:09;12.38;;;4.00;;
80370;SDS011;69894;48.124;11.542;2023-05-07T00:53:36;6.82;;;3.45;;
80370;SDS011;69894;48.124;11.542;2023-05-07T00:56:01;7.88;;;3.88;;
80370;SDS011;69894;48.124;11.542;2023-05-07T00:58:27;7.13;;;3.20;;
80370;SDS011;69894;48.124;11.542;2023-05-07T01:00:52;7.93;;;4.07;;
80370;SDS011;69894;48.124;11.542;2023-05-07T01:03:18;7.45;;;3.30;;
80370;SDS011;69894;48.124;11.542;2023-05-07T01:05:43;8.02;;;3.65;;
80370;SDS011;69894;48.124;11.542;2023-05-07T01:08:10;8.40;;;3.85;;
80370;SDS011;69894;48.124;11.542;2023-05-07T01:10:36;9.15;;;3.78;;
80370;SDS011;69894;48.124;11.542;2023-05-07T01:13:02;6.93;;;3.40;;
80370;SDS011;69894;48.124;11.542;2023-05-07T01:15:27;11.05;;;3.65;;
80370;SDS011;69894;48.124;11.542;2023-05-07T01:17:53;11.07;;;4.07;;
80370;SDS011;69894;48.124;11.542;2023-05-07T01:20:18;7.45;;;3.80;;
80370;SDS011;69894;48.124;11.542;2023-05-07T01:22:44;7.28;;;3.38;;
80370;SDS011;69894;48.124;11.542;2023-05-07T01:25:10;6.47;;;3.90;;
80370;SDS011;69894;48.124;11.542;2023-05-07T01:27:36;8.00;;;3.80;;
80370;SDS011;69894;48.124;11.542;2023-05-07T01:30:04;10.23;;;3.75;;
80370;SDS011;69894;48.124;11.542;2023-05-07T01:32:36;7.97;;;3.80;;
80370;SDS011;69894;48.124;11.542;2023-05-07T01:35:07;9.23;;;4.28;;
80370;SDS011;69894;48.124;11.542;2023-05-07T01:37:36;7.88;;;3.63;;
80370;SDS011;69894;48.124;11.542;2023-05-07T01:40:02;7.82;;;3.65;;
80370;SDS011;69894;48.124;11.542;2023-05-07T01:45:19;8.05;;;3.80;;
80370;SDS011;69894;48.124;11.542;2023-05-07T01:47:45;7.30;;;3.65;;
80370;SDS011;69894;48.124;11.542;2023-05-07T01:50:10;8.02;;;3.97;;
80370;SDS011;69894;48.124;11.542;2023-05-07T01:52:37;8.15;;;3.55;;
80370;SDS011;69894;48.124;11.542;2023-05-07T01:55:03;6.43;;;3.63;;
80370;SDS011;69894;48.124;11.542;2023-05-07T01:57:29;7.63;;;3.60;;
80370;SDS011;69894;48.124;11.542;2023-05-07T01:59:55;7.32;;;4.13;;
80370;SDS011;69894;48.124;11.542;2023-05-07T02:02:20;7.32;;;3.67;;
80370;SDS011;69894;48.124;11.542;2023-05-07T02:04:45;6.68;;;3.08;;
80370;SDS011;69894;48.124;11.542;2023-05-07T02:07:11;9.18;;;3.05;;
80370;SDS011;69894;48.124;11.542;2023-05-07T02:09:37;15.80;;;4.47;;
80370;SDS011;69894;48.124;11.542;2023-05-07T02:12:03;14.38;;;4.78;;
80370;SDS011;69894;48.124;11.542;2023-05-07T02:14:29;13.68;;;4.80;;
80370;SDS011;69894;48.124;11.542;2023-05-07T02:16:54;13.93;;;5.60;;
80370;SDS011;69894;48.124;11.542;2023-05-07T02:19:20;15.00;;;5.75;;
80370;SDS011;69894;48.124;11.542;2023-05-07T02:21:46;15.30;;;5.10;;
80370;SDS011;69894;48.124;11.542;2023-05-07T02:24:12;12.82;;;4.22;;
80370;SDS011;69894;48.124;11.542;2023-05-07T02:26:37;6.95;;;3.55;;
80370;SDS011;69894;48.124;11.542;2023-05-07T02:29:04;8.48;;;3.50;;
80370;SDS011;69894;48.124;11.542;2023-05-07T02:31:30;10.02;;;3.95;;
80370;SDS011;69894;48.124;11.542;2023-05-07T02:33:55;8.73;;;4.00;;
80370;SDS011;69894;48.124;11.542;2023-05-07T02:36:20;7.45;;;3.67;;
80370;SDS011;69894;48.124;11.542;2023-05-07T02:38:46;6.65;;;3.10;;
80370;SDS011;69894;48.124;11.542;2023-05-07T02:41:11;8.32;;;2.88;;
80370;SDS011;69894;48.124;11.542;2023-05-07T02:43:36;5.85;;;3.28;;
80370;SDS011;69894;48.124;11.542;2023-05-07T02:48:28;5.75;;;2.83;;
80370;SDS011;69894;48.124;11.542;2023-05-07T02:50:53;8.48;;;3.22;;
80370;SDS011;69894;48.124;11.542;2023-05-07T02:53:19;7.32;;;3.20;;
80370;SDS011;69894;48.124;11.542;2023-05-07T02:55:44;6.35;;;3.10;;
80370;SDS011;69894;48.124;11.542;2023-05-07T02:58:10;7.85;;;3.33;;
80370;SDS011;69894;48.124;11.542;2023-05-07T03:00:35;5.78;;;3.08;;
80370;SDS011;69894;48.124;11.542;2023-05-07T03:03:01;9.68;;;3.85;;
80370;SDS011;69894;48.124;11.542;2023-05-07T03:05:26;5.50;;;3.05;;
80370;SDS011;69894;48.124;11.542;2023-05-07T03:07:51;5.57;;;3.13;;
80370;SDS011;69894;48.124;11.542;2023-05-07T03:10:17;7.07;;;2.90;;
80370;SDS011;69894;48.124;11.542;2023-05-07T03:12:43;6.47;;;2.80;;
80370;SDS011;69894;48.124;11.542;2023-05-07T03:15:08;6.25;;;2.95;;
80370;SDS011;69894;48.124;11.542;2023-05-07T03:17:35;6.90;;;3.35;;
80370;SDS011;69894;48.124;11.542;2023-05-07T03:20:00;7.10;;;3.00;;
80370;SDS011;69894;48.124;11.542;2023-05-07T03:22:26;4.95;;;2.85;;
80370;SDS011;69894;48.124;11.542;2023-05-07T03:24:51;4.80;;;2.65;;
80370;SDS011;69894;48.124;11.542;2023-05-07T03:27:17;5.85;;;3.10;;
80370;SDS011;69894;48.124;11.542;2023-05-07T03:29:42;5.13;;;2.75;;
80370;SDS011;69894;48.124;11.542;2023-05-07T03:32:07;8.40;;;3.10;;
80370;SDS011;69894;48.124;11.542;2023-05-07T03:34:32;6.45;;;2.97;;
80370;SDS011;69894;48.124;11.542;2023-05-07T03:36:58;6.40;;;3.10;;
80370;SDS011;69894;48.124;11.542;2023-05-07T03:39:23;6.03;;;2.58;;
80370;SDS011;69894;48.124;11.542;2023-05-07T03:41:49;4.90;;;2.63;;
80370;SDS011;69894;48.124;11.542;2023-05-07T03:44:14;5.22;;;2.83;;
80370;SDS011;69894;48.124;11.542;2023-05-07T03:46:39;6.68;;;3.15;;
80370;SDS011;69894;48.124;11.542;2023-05-07T03:49:05;4.72;;;2.85;;
80370;SDS011;69894;48.124;11.542;2023-05-07T03:51:30;4.70;;;2.40;;
80370;SDS011;69894;48.124;11.542;2023-05-07T03:53:56;4.65;;;2.42;;
80370;SDS011;69894;48.124;11.542;2023-05-07T03:56:22;4.47;;;2.33;;
80370;SDS011;69894;48.124;11.542;2023-05-07T03:58:47;4.82;;;2.78;;
80370;SDS011;69894;48.124;11.542;2023-05-07T04:01:13;4.07;;;2.40;;
80370;SDS011;69894;48.124;11.542;2023-05-07T04:03:38;5.63;;;3.10;;
80370;SDS011;69894;48.124;11.542;2023-05-07T04:06:03;5.55;;;2.95;;
80370;SDS011;69894;48.124;11.542;2023-05-07T04:08:29;5.22;;;2.50;;
80370;SDS011;69894;48.124;11.542;2023-05-07T04:10:55;5.57;;;2.90;;
80370;SDS011;69894;48.124;11.542;2023-05-07T04:13:21;4.97;;;2.40;;
80370;SDS011;69894;48.124;11.542;2023-05-07T04:15:46;6.35;;;2.78;;
80370;SDS011;69894;48.124;11.542;2023-05-07T04:18:13;9.35;;;3.13;;
80370;SDS011;69894;48.124;11.542;2023-05-07T04:20:39;6.60;;;2.72;;
80370;SDS011;69894;48.124;11.542;2023-05-07T04:23:04;5.85;;;2.63;;
80370;SDS011;69894;48.124;11.542;2023-05-07T04:25:29;6.80;;;3.08;;
80370;SDS011;69894;48.124;11.542;2023-05-07T04:27:55;5.25;;;2.72;;
80370;SDS011;69894;48.124;11.542;2023-05-07T04:30:20;6.60;;;2.85;;
80370;SDS011;69894;48.124;11.542;2023-05-07T04:32:46;6.13;;;2.70;;
80370;SDS011;69894;48.124;11.542;2023-05-07T04:35:12;4.40;;;2.60;;
80370;SDS011;69894;48.124;11.542;2023-05-07T04:37:38;2.97;;;2.40;;
80370;SDS011;69894;48.124;11.542;2023-05-07T04:40:03;4.68;;;2.50;;
80370;SDS011;69894;48.124;11.542;2023-05-07T04:42:29;6.15;;;2.75;;
80370;SDS011;69894;48.124;11.542;2023-05-07T04:44:54;3.83;;;2.40;;
80370;SDS011;69894;48.124;11.542;2023-05-07T04:47:20;5.60;;;2.55;;
80370;SDS011;69894;48.124;11.542;2023-05-07T04:49:45;3.90;;;2.22;;
80370;SDS011;69894;48.124;11.542;2023-05-07T04:52:11;3.03;;;2.15;;
80370;SDS011;69894;48.124;11.542;2023-05-07T04:54:36;4.32;;;2.38;;
80370;SDS011;69894;48.124;11.542;2023-05-07T04:57:03;6.43;;;2.55;;
80370;SDS011;69894;48.124;11.542;2023-05-07T04:59:29;5.50;;;2.28;;
80370;SDS011;69894;48.124;11.542;2023-05-07T05:01:54;3.75;;;2.55;;
80370;SDS011;69894;48.124;11.542;2023-05-07T05:04:20;4.25;;;2.40;;
80370;SDS011;69894;48.124;11.542;2023-05-07T05:06:45;4.45;;;2.90;;
80370;SDS011;69894;48.124;11.542;2023-05-07T05:09:11;5.70;;;2.75;;
80370;SDS011;69894;48.124;11.542;2023-05-07T05:11:36;3.60;;;2.53;;
80370;SDS011;69894;48.124;11.542;2023-05-07T05:14:01;5.72;;;2.47;;
80370;SDS011;69894;48.124;11.542;2023-05-07T05:16:27;5.75;;;2.80;;
80370;SDS011;69894;48.124;11.542;2023-05-07T05:18:52;4.82;;;2.25;;
80370;SDS011;69894;48.124;11.542;2023-05-07T05:21:19;5.68;;;2.55;;
80370;SDS011;69894;48.124;11.542;2023-05-07T05:23:45;4.63;;;2.60;;
80370;SDS011;69894;48.124;11.542;2023-05-07T05:26:11;3.33;;;2.40;;
80370;SDS011;69894;48.124;11.542;2023-05-07T05:28:39;3.78;;;2.25;;
80370;SDS011;69894;48.124;11.542;2023-05-07T05:31:05;5.57;;;2.92;;
80370;SDS011;69894;48.124;11.542;2023-05-07T05:33:30;2.40;;;1.83;;
80370;SDS011;69894;48.124;11.542;2023-05-07T05:35:55;4.57;;;2.30;;
80370;SDS011;69894;48.124;11.542;2023-05-07T05:38:21;4.60;;;2.30;;
80370;SDS011;69894;48.124;11.542;2023-05-07T05:40:46;3.92;;;1.90;;
80370;SDS011;69894;48.124;11.542;2023-05-07T05:43:12;2.95;;;1.85;;
80370;SDS011;69894;48.124;11.542;2023-05-07T05:45:37;2.28;;;1.83;;
80370;SDS011;69894;48.124;11.542;2023-05-07T05:48:02;3.93;;;2.03;;
80370;SDS011;69894;48.124;11.542;2023-05-07T05:50:28;1.92;;;1.65;;
80370;SDS011;69894;48.124;11.542;2023-05-07T05:52:53;2.77;;;2.40;;
80370;SDS011;69894;48.124;11.542;2023-05-07T05:55:18;2.55;;;2.22;;
80370;SDS011;69894;48.124;11.542;2023-05-07T05:57:44;4.82;;;2.63;;
80370;SDS011;69894;48.124;11.542;2023-05-07T06:00:10;2.90;;;2.60;;
80370;SDS011;69894;48.124;11.542;2023-05-07T06:02:35;4.40;;;2.70;;
80370;SDS011;69894;48.124;11.542;2023-05-07T06:05:01;3.87;;;2.67;;
80370;SDS011;69894;48.124;11.542;2023-05-07T06:07:26;3.77;;;2.93;;
80370;SDS011;69894;48.124;11.542;2023-05-07T06:09:51;3.23;;;2.87;;
80370;SDS011;69894;48.124;11.542;2023-05-07T06:12:17;3.97;;;3.13;;
80370;SDS011;69894;48.124;11.542;2023-05-07T06:14:42;3.87;;;3.30;;
80370;SDS011;69894;48.124;11.542;2023-05-07T06:17:08;4.18;;;3.63;;
80370;SDS011;69894;48.124;11.542;2023-05-07T06:19:33;4.07;;;3.73;;
80370;SDS011;69894;48.124;11.542;2023-05-07T06:22:00;4.32;;;3.80;;
80370;SDS011;69894;48.124;11.542;2023-05-07T06:24:26;3.97;;;3.67;;
80370;SDS011;69894;48.124;11.542;2023-05-07T06:26:52;4.30;;;3.90;;
80370;SDS011;69894;48.124;11.542;2023-05-07T06:29:17;4.57;;;4.15;;
80370;SDS011;69894;48.124;11.542;2023-05-07T06:31:43;4.65;;;4.25;;
80370;SDS011;69894;48.124;11.542;2023-05-07T06:34:08;6.50;;;5.18;;
80370;SDS011;69894;48.124;11.542;2023-05-07T06:36:33;5.33;;;4.93;;
80370;SDS011;69894;48.124;11.542;2023-05-07T06:38:59;5.90;;;5.10;;
80370;SDS011;69894;48.124;11.542;2023-05-07T06:41:24;5.70;;;5.20;;
80370;SDS011;69894;48.124;11.542;2023-05-07T06:43:50;5.68;;;5.18;;
80370;SDS011;69894;48.124;11.542;2023-05-07T06:46:16;5.87;;;5.30;;
80370;SDS011;69894;48.124;11.542;2023-05-07T06:48:41;5.57;;;5.17;;
80370;SDS011;69894;48.124;11.542;2023-05-07T06:51:06;6.20;;;5.80;;
80370;SDS011;69894;48.124;11.542;2023-05-07T06:53:32;6.07;;;5.60;;
80370;SDS011;69894;48.124;11.542;2023-05-07T06:55:57;6.30;;;5.80;;
80370;SDS011;69894;48.124;11.542;2023-05-07T06:58:23;5.83;;;5.43;;
80370;SDS011;69894;48.124;11.542;2023-05-07T07:00:51;6.47;;;6.00;;
80370;SDS011;69894;48.124;11.542;2023-05-07T07:03:16;5.65;;;5.25;;
80370;SDS011;69894;48.124;11.542;2023-05-07T07:05:41;6.43;;;5.30;;
80370;SDS011;69894;48.124;11.542;2023-05-07T07:08:07;5.78;;;5.38;;
80370;SDS011;69894;48.124;11.542;2023-05-07T07:10:32;6.28;;;5.78;;
80370;SDS011;69894;48.124;11.542;2023-05-07T07:12:58;6.17;;;5.57;;
80370;SDS011;69894;48.124;11.542;2023-05-07T07:15:23;6.40;;;5.80;;
80370;SDS011;69894;48.124;11.542;2023-05-07T07:17:50;5.95;;;5.55;;
80370;SDS011;69894;48.124;11.542;2023-05-07T07:20:15;5.65;;;5.15;;
80370;SDS011;69894;48.124;11.542;2023-05-07T07:22:41;6.00;;;5.53;;
80370;SDS011;69894;48.124;11.542;2023-05-07T07:25:06;6.40;;;5.90;;
80370;SDS011;69894;48.124;11.542;2023-05-07T07:27:32;7.18;;;6.68;;
80370;SDS011;69894;48.124;11.542;2023-05-07T07:29:57;6.90;;;6.30;;
80370;SDS011;69894;48.124;11.542;2023-05-07T07:32:22;6.07;;;5.67;;
80370;SDS011;69894;48.124;11.542;2023-05-07T07:34:54;6.07;;;5.60;;
80370;SDS011;69894;48.124;11.542;2023-05-07T07:37:20;7.38;;;6.68;;
80370;SDS011;69894;48.124;11.542;2023-05-07T07:39:45;7.38;;;6.50;;
80370;SDS011;69894;48.124;11.542;2023-05-07T07:42:10;7.00;;;6.50;;
80370;SDS011;69894;48.124;11.542;2023-05-07T07:44:36;7.53;;;6.72;;
80370;SDS011;69894;48.124;11.542;2023-05-07T07:47:01;7.30;;;6.80;;
80370;SDS011;69894;48.124;11.542;2023-05-07T07:49:26;7.30;;;6.70;;
80370;SDS011;69894;48.124;11.542;2023-05-07T07:51:52;6.32;;;5.75;;
80370;SDS011;69894;48.124;11.542;2023-05-07T07:54:17;6.77;;;6.27;;
80370;SDS011;69894;48.124;11.542;2023-05-07T07:56:42;6.97;;;6.50;;
80370;SDS011;69894;48.124;11.542;2023-05-07T07:59:08;6.67;;;6.17;;
80370;SDS011;69894;48.124;11.542;2023-05-07T08:01:33;7.27;;;6.67;;
80370;SDS011;69894;48.124;11.542;2023-05-07T08:03:58;6.77;;;6.27;;
80370;SDS011;69894;48.124;11.542;2023-05-07T08:06:24;6.68;;;6.28;;
80370;SDS011;69894;48.124;11.542;2023-05-07T08:08:50;7.18;;;6.63;;
80370;SDS011;69894;48.124;11.542;2023-05-07T08:11:16;6.50;;;6.05;;
80370;SDS011;69894;48.124;11.542;2023-05-07T08:13:41;6.20;;;5.80;;
80370;SDS011;69894;48.124;11.542;2023-05-07T08:16:07;6.30;;;5.90;;
80370;SDS011;69894;48.124;11.542;2023-05-07T08:18:32;7.28;;;5.88;;
80370;SDS011;69894;48.124;11.542;2023-05-07T08:20:57;6.03;;;5.53;;
80370;SDS011;69894;48.124;11.542;2023-05-07T08:23:23;5.63;;;5.07;;
80370;SDS011;69894;48.124;11.542;2023-05-07T08:25:48;6.07;;;5.30;;
80370;SDS011;69894;48.124;11.542;2023-05-07T08:28:14;5.20;;;4.80;;
80370;SDS011;69894;48.124;11.542;2023-05-07T08:30:40;4.70;;;4.30;;
80370;SDS011;69894;48.124;11.542;2023-05-07T08:33:06;5.15;;;4.32;;
80370;SDS011;69894;48.124;11.542;2023-05-07T08:35:31;4.75;;;4.35;;
80370;SDS011;69894;48.124;11.542;2023-05-07T08:37:56;4.00;;;3.60;;
80370;SDS011;69894;48.124;11.542;2023-05-07T08:40:25;3.60;;;3.30;;
80370;SDS011;69894;48.124;11.542;2023-05-07T08:42:52;3.72;;;2.97;;
80370;SDS011;69894;48.124;11.542;2023-05-07T08:45:18;3.65;;;2.40;;
80370;SDS011;69894;48.124;11.542;2023-05-07T08:47:44;2.63;;;2.38;;
80370;SDS011;69894;48.124;11.542;2023-05-07T08:50:12;2.30;;;2.10;;
80370;SDS011;69894;48.124;11.542;2023-05-07T08:52:38;3.63;;;2.00;;
80370;SDS011;69894;48.124;11.542;2023-05-07T08:55:04;3.65;;;2.42;;
80370;SDS011;69894;48.124;11.542;2023-05-07T08:57:30;2.80;;;2.20;;
80370;SDS011;69894;48.124;11.542;2023-05-07T08:59:56;3.53;;;2.00;;
80370;SDS011;69894;48.124;11.542;2023-05-07T09:02:21;4.53;;;1.67;;
80370;SDS011;69894;48.124;11.542;2023-05-07T09:04:46;6.33;;;2.00;;
80370;SDS011;69894;48.124;11.542;2023-05-07T09:07:12;4.20;;;2.05;;
80370;SDS011;69894;48.124;11.542;2023-05-07T09:09:37;2.22;;;1.98;;
80370;SDS011;69894;48.124;11.542;2023-05-07T09:12:02;3.97;;;1.77;;
80370;SDS011;69894;48.124;11.542;2023-05-07T09:14:28;3.15;;;1.80;;
80370;SDS011;69894;48.124;11.542;2023-05-07T09:16:55;6.45;;;2.03;;
80370;SDS011;69894;48.124;11.542;2023-05-07T09:19:24;4.10;;;1.85;;
80370;SDS011;69894;48.124;11.542;2023-05-07T09:21:57;3.72;;;1.70;;
80370;SDS011;69894;48.124;11.542;2023-05-07T09:24:26;2.20;;;1.65;;
80370;SDS011;69894;48.124;11.542;2023-05-07T09:26:53;3.50;;;1.83;;
80370;SDS011;69894;48.124;11.542;2023-05-07T09:29:20;3.50;;;1.90;;
80370;SDS011;69894;48.124;11.542;2023-05-07T09:31:45;3.70;;;2.08;;
80370;SDS011;69894;48.124;11.542;2023-05-07T09:34:11;3.13;;;1.40;;
80370;SDS011;69894;48.124;11.542;2023-05-07T09:36:36;3.20;;;1.70;;
80370;SDS011;69894;48.124;11.542;2023-05-07T09:39:02;2.88;;;1.80;;
80370;SDS011;69894;48.124;11.542;2023-05-07T09:41:27;2.83;;;1.42;;
80370;SDS011;69894;48.124;11.542;2023-05-07T09:43:55;4.20;;;1.63;;
80370;SDS011;69894;48.124;11.542;2023-05-07T09:46:23;1.98;;;1.27;;
80370;SDS011;69894;48.124;11.542;2023-05-07T09:48:56;4.00;;;1.30;;
80370;SDS011;69894;48.124;11.542;2023-05-07T09:51:28;3.40;;;1.50;;
80370;SDS011;69894;48.124;11.542;2023-05-07T09:53:56;2.35;;;1.20;;
80370;SDS011;69894;48.124;11.542;2023-05-07T09:56:24;5.40;;;1.70;;
80370;SDS011;69894;48.124;11.542;2023-05-07T09:58:50;3.72;;;1.80;;
80370;SDS011;69894;48.124;11.542;2023-05-07T10:01:17;4.82;;;1.52;;
80370;SDS011;69894;48.124;11.542;2023-05-07T10:03:47;2.33;;;1.48;;
80370;SDS011;69894;48.124;11.542;2023-05-07T10:06:13;3.03;;;1.50;;
80370;SDS011;69894;48.124;11.542;2023-05-07T10:08:39;3.13;;;1.60;;
80370;SDS011;69894;48.124;11.542;2023-05-07T10:11:05;2.78;;;1.70;;
80370;SDS011;69894;48.124;11.542;2023-05-07T10:13:33;2.35;;;1.60;;
80370;SDS011;69894;48.124;11.542;2023-05-07T10:16:05;2.42;;;1.70;;
80370;SDS011;69894;48.124;11.542;2023-05-07T10:18:31;3.90;;;1.48;;
80370;SDS011;69894;48.124;11.542;2023-05-07T10:21:07;3.10;;;1.70;;
80370;SDS011;69894;48.124;11.542;2023-05-07T10:23:34;3.67;;;1.70;;
80370;SDS011;69894;48.124;11.542;2023-05-07T10:26:00;1.85;;;1.38;;
80370;SDS011;69894;48.124;11.542;2023-05-07T10:28:27;3.75;;;1.65;;
80370;SDS011;69894;48.124;11.542;2023-05-07T10:33:33;3.47;;;1.80;;
80370;SDS011;69894;48.124;11.542;2023-05-07T10:35:59;2.53;;;1.35;;
80370;SDS011;69894;48.124;11.542;2023-05-07T10:38:26;2.60;;;1.50;;
80370;SDS011;69894;48.124;11.542;2023-05-07T10:40:52;2.83;;;1.67;;
80370;SDS011;69894;48.124;11.542;2023-05-07T10:43:18;2.55;;;1.70;;
80370;SDS011;69894;48.124;11.542;2023-05-07T10:45:43;3.17;;;1.60;;
80370;SDS011;69894;48.124;11.542;2023-05-07T10:48:10;4.15;;;2.08;;
80370;SDS011;69894;48.124;11.542;2023-05-07T10:50:40;2.85;;;1.90;;
80370;SDS011;69894;48.124;11.542;2023-05-07T10:55:47;2.55;;;1.42;;
80370;SDS011;69894;48.124;11.542;2023-05-07T10:58:31;3.47;;;1.63;;
80370;SDS011;69894;48.124;11.542;2023-05-07T11:01:00;2.05;;;1.45;;
80370;SDS011;69894;48.124;11.542;2023-05-07T11:03:26;4.53;;;1.92;;
80370;SDS011;69894;48.124;11.542;2023-05-07T11:06:08;3.25;;;1.90;;
80370;SDS011;69894;48.124;11.542;2023-05-07T11:08:53;3.03;;;1.73;;
80370;SDS011;69894;48.124;11.542;2023-05-07T11:11:19;3.78;;;1.70;;
80370;SDS011;69894;48.124;11.542;2023-05-07T11:13:45;3.45;;;1.60;;
80370;SDS011;69894;48.124;11.542;2023-05-07T11:16:17;3.95;;;1.90;;
80370;SDS011;69894;48.124;11.542;2023-05-07T11:18:48;4.22;;;1.90;;
80370;SDS011;69894;48.124;11.542;2023-05-07T11:21:29;4.50;;;1.75;;
80370;SDS011;69894;48.124;11.542;2023-05-07T11:24:00;3.47;;;1.55;;
80370;SDS011;69894;48.124;11.542;2023-05-07T11:26:27;4.45;;;1.50;;
80370;SDS011;69894;48.124;11.542;2023-05-07T11:28:54;4.95;;;1.65;;
80370;SDS011;69894;48.124;11.542;2023-05-07T11:31:20;2.88;;;1.80;;
80370;SDS011;69894;48.124;11.542;2023-05-07T11:33:48;3.78;;;1.90;;
80370;SDS011;69894;48.124;11.542;2023-05-07T11:36:13;3.00;;;2.05;;
80370;SDS011;69894;48.124;11.542;2023-05-07T11:38:39;4.05;;;2.35;;
80370;SDS011;69894;48.124;11.542;2023-05-07T11:41:04;3.97;;;1.90;;
80370;SDS011;69894;48.124;11.542;2023-05-07T11:43:30;5.38;;;2.20;;
80370;SDS011;69894;48.124;11.542;2023-05-07T11:46:04;3.88;;;2.08;;
80370;SDS011;69894;48.124;11.542;2023-05-07T11:48:32;3.97;;;1.95;;
80370;SDS011;69894;48.124;11.542;2023-05-07T11:51:01;2.85;;;2.05;;
80370;SDS011;69894;48.124;11.542;2023-05-07T11:53:28;4.97;;;2.40;;
80370;SDS011;69894;48.124;11.542;2023-05-07T11:56:00;2.67;;;1.80;;
80370;SDS011;69894;48.124;11.542;2023-05-07T11:58:36;3.22;;;2.20;;
80370;SDS011;69894;48.124;11.542;2023-05-07T12:01:02;5.05;;;2.20;;
80370;SDS011;69894;48.124;11.542;2023-05-07T12:03:27;2.85;;;2.25;;
80370;SDS011;69894;48.124;11.542;2023-05-07T12:05:53;3.53;;;2.50;;
80370;SDS011;69894;48.124;11.542;2023-05-07T12:08:18;4.70;;;2.53;;
80370;SDS011;69894;48.124;11.542;2023-05-07T12:10:45;6.82;;;2.78;;
80370;SDS011;69894;48.124;11.542;2023-05-07T12:13:17;4.35;;;2.45;;
80370;SDS011;69894;48.124;11.542;2023-05-07T12:15:46;4.15;;;2.30;;
80370;SDS011;69894;48.124;11.542;2023-05-07T12:18:11;4.07;;;2.30;;
80370;SDS011;69894;48.124;11.542;2023-05-07T12:20:37;3.60;;;2.08;;
80370;SDS011;69894;48.124;11.542;2023-05-07T12:23:02;4.25;;;2.45;;
80370;SDS011;69894;48.124;11.542;2023-05-07T12:25:38;5.43;;;2.08;;
80370;SDS011;69894;48.124;11.542;2023-05-07T12:28:04;3.45;;;2.13;;
80370;SDS011;69894;48.124;11.542;2023-05-07T12:30:39;4.03;;;2.05;;
80370;SDS011;69894;48.124;11.542;2023-05-07T12:33:04;5.40;;;2.40;;
80370;SDS011;69894;48.124;11.542;2023-05-07T12:35:30;3.40;;;2.00;;
80370;SDS011;69894;48.124;11.542;2023-05-07T12:37:57;4.57;;;2.10;;
80370;SDS011;69894;48.124;11.542;2023-05-07T12:40:24;3.58;;;2.08;;
80370;SDS011;69894;48.124;11.542;2023-05-07T12:43:00;3.63;;;1.92;;
80370;SDS011;69894;48.124;11.542;2023-05-07T12:45:25;4.07;;;1.90;;
80370;SDS011;69894;48.124;11.542;2023-05-07T12:47:51;2.25;;;1.70;;
80370;SDS011;69894;48.124;11.542;2023-05-07T12:50:16;2.30;;;1.83;;
80370;SDS011;69894;48.124;11.542;2023-05-07T12:52:42;3.22;;;1.90;;
80370;SDS011;69894;48.124;11.542;2023-05-07T12:55:09;4.05;;;2.08;;
80370;SDS011;69894;48.124;11.542;2023-05-07T12:57:38;2.88;;;1.63;;
80370;SDS011;69894;48.124;11.542;2023-05-07T13:00:05;4.72;;;1.92;;
80370;SDS011;69894;48.124;11.542;2023-05-07T13:02:34;4.03;;;2.08;;
80370;SDS011;69894;48.124;11.542;2023-05-07T13:05:02;3.72;;;2.20;;
80370;SDS011;69894;48.124;11.542;2023-05-07T13:07:27;1.95;;;1.60;;
80370;SDS011;69894;48.124;11.542;2023-05-07T13:09:53;4.32;;;1.70;;
80370;SDS011;69894;48.124;11.542;2023-05-07T13:12:18;2.10;;;1.70;;
80370;SDS011;69894;48.124;11.542;2023-05-07T13:14:43;2.70;;;1.73;;
80370;SDS011;69894;48.124;11.542;2023-05-07T13:17:09;3.05;;;1.70;;
80370;SDS011;69894;48.124;11.542;2023-05-07T13:19:34;4.35;;;1.80;;
80370;SDS011;69894;48.124;11.542;2023-05-07T13:22:02;3.45;;;2.10;;
80370;SDS011;69894;48.124;11.542;2023-05-07T13:24:27;2.47;;;1.70;;
80370;SDS011;69894;48.124;11.542;2023-05-07T13:26:52;2.08;;;1.60;;
80370;SDS011;69894;48.124;11.542;2023-05-07T13:29:18;2.45;;;1.50;;
80370;SDS011;69894;48.124;11.542;2023-05-07T13:31:43;3.67;;;1.63;;
80370;SDS011;69894;48.124;11.542;2023-05-07T13:34:10;2.17;;;1.40;;
80370;SDS011;69894;48.124;11.542;2023-05-07T13:36:35;2.40;;;1.50;;
80370;SDS011;69894;48.124;11.542;2023-05-07T13:39:04;1.83;;;1.30;;
80370;SDS011;69894;48.124;11.542;2023-05-07T13:41:29;2.45;;;1.58;;
80370;SDS011;69894;48.124;11.542;2023-05-07T13:43:55;3.53;;;1.20;;
80370;SDS011;69894;48.124;11.542;2023-05-07T13:46:21;1.75;;;1.38;;
80370;SDS011;69894;48.124;11.542;2023-05-07T13:48:46;1.95;;;1.20;;
80370;SDS011;69894;48.124;11.542;2023-05-07T13:51:12;2.63;;;1.38;;
80370;SDS011;69894;48.124;11.542;2023-05-07T13:53:37;2.80;;;1.45;;
80370;SDS011;69894;48.124;11.542;2023-05-07T13:56:02;1.67;;;1.30;;
80370;SDS011;69894;48.124;11.542;2023-05-07T13:58:29;1.95;;;1.30;;
80370;SDS011;69894;48.124;11.542;2023-05-07T14:00:54;3.42;;;1.50;;
80370;SDS011;69894;48.124;11.542;2023-05-07T14:03:20;2.45;;;1.30;;
80370;SDS011;69894;48.124;11.542;2023-05-07T14:05:45;2.92;;;1.70;;
80370;SDS011;69894;48.124;11.542;2023-05-07T14:08:10;3.08;;;1.40;;
80370;SDS011;69894;48.124;11.542;2023-05-07T14:10:37;2.28;;;1.40;;
80370;SDS011;69894;48.124;11.542;2023-05-07T14:13:03;4.82;;;1.60;;
80370;SDS011;69894;48.124;11.542;2023-05-07T14:15:28;2.50;;;1.40;;
80370;SDS011;69894;48.124;11.542;2023-05-07T14:17:53;2.97;;;1.50;;
80370;SDS011;69894;48.124;11.542;2023-05-07T14:20:20;4.13;;;1.30;;
80370;SDS011;69894;48.124;11.542;2023-05-07T14:22:45;1.95;;;1.35;;
80370;SDS011;69894;48.124;11.542;2023-05-07T14:25:10;2.23;;;1.70;;
80370;SDS011;69894;48.124;11.542;2023-05-07T14:27:36;4.53;;;1.70;;
80370;SDS011;69894;48.124;11.542;2023-05-07T14:30:01;2.80;;;1.58;;
80370;SDS011;69894;48.124;11.542;2023-05-07T14:32:26;2.90;;;1.63;;
80370;SDS011;69894;48.124;11.542;2023-05-07T14:34:52;1.55;;;1.38;;
80370;SDS011;69894;48.124;11.542;2023-05-07T14:37:17;1.73;;;1.43;;